Time;durP1;ratioP1;P1;durP2;ratioP2;P2;SDS_P1;SDS_P2;PMS_P1;PMS_P2;Temp;Humidity;BMP_temperature;BMP_pressure;BME280_temperature;BME280_humidity;BME280_pressure;Samples;Min_cycle;Max_cycle;Signal;HPM_P1;HPM_P2
2021/07/23 00:00:23;;;;;;;7.47;5.17;;;;;;;21.57;48.85;95283.28;5031295;28;20193;-67
2021/07/23 00:02:50;;;;;;;11.17;5.10;;;;;;;21.66;48.79;95280.63;5034031;28;20867;-65
2021/07/23 00:05:16;;;;;;;8.13;5.23;;;;;;;21.70;48.52;95281.53;5032446;28;20570;-65
2021/07/23 00:07:45;;;;;;;7.63;5.07;;;;;;;21.52;48.49;95266.66;5031337;28;20695;-65
2021/07/23 00:10:13;;;;;;;7.40;4.87;;;;;;;21.48;48.94;95277.16;5027344;28;20585;-67
2021/07/23 00:12:40;;;;;;;5.50;5.00;;;;;;;21.63;48.46;95275.88;5031617;28;20197;-66
2021/07/23 00:15:08;;;;;;;8.47;4.90;;;;;;;21.47;48.66;95282.81;5029459;28;20197;-66
2021/07/23 00:17:35;;;;;;;9.57;4.77;;;;;;;21.42;48.59;95288.31;5028193;28;20640;-66
2021/07/23 00:20:03;;;;;;;10.67;5.40;;;;;;;21.12;49.04;95282.78;5030284;28;20440;-64
2021/07/23 00:22:31;;;;;;;7.30;5.10;;;;;;;21.12;49.16;95290.00;5030521;28;20686;-65
2021/07/23 00:25:05;;;;;;;5.93;5.03;;;;;;;21.17;49.20;95289.84;5030469;28;20209;-65
2021/07/23 00:27:32;;;;;;;7.87;5.07;;;;;;;20.39;50.68;95293.34;5031139;28;20204;-66
2021/07/23 00:29:59;;;;;;;6.57;4.83;;;;;;;20.57;50.54;95287.00;5030603;28;20251;-66
2021/07/23 00:32:26;;;;;;;5.37;4.63;;;;;;;21.01;49.75;95296.72;5029916;28;20193;-66
2021/07/23 00:34:53;;;;;;;6.90;4.73;;;;;;;20.85;50.18;95283.03;5027799;28;20436;-66
2021/07/23 00:37:20;;;;;;;9.37;4.40;;;;;;;20.95;49.89;95290.72;5030250;28;20655;-65
2021/07/23 00:39:47;;;;;;;7.17;4.97;;;;;;;21.03;49.66;95284.66;5029565;28;20308;-66
2021/07/23 00:42:14;;;;;;;9.87;5.07;;;;;;;20.82;50.26;95288.97;5029745;28;20703;-66
2021/07/23 00:44:41;;;;;;;7.63;5.20;;;;;;;20.69;50.72;95281.88;5028216;28;20597;-66
2021/07/23 00:47:09;;;;;;;11.43;4.90;;;;;;;20.85;49.73;95275.03;5029847;28;20283;-65
2021/07/23 00:49:38;;;;;;;6.90;5.33;;;;;;;20.94;49.66;95270.50;5029304;28;20260;-66
2021/07/23 00:52:05;;;;;;;8.27;5.20;;;;;;;21.06;49.48;95278.69;5030370;28;20284;-66
2021/07/23 00:54:38;;;;;;;7.33;5.00;;;;;;;21.00;49.72;95277.28;5029088;28;20479;-66
2021/07/23 00:57:05;;;;;;;6.30;4.30;;;;;;;20.99;49.32;95275.72;5028117;28;20197;-65
2021/07/23 00:59:32;;;;;;;4.97;4.47;;;;;;;20.83;49.99;95274.56;5027001;28;20279;-64
2021/07/23 01:02:01;;;;;;;6.40;4.77;;;;;;;20.95;49.55;95277.41;5014796;28;20186;-65
2021/07/23 01:04:30;;;;;;;7.97;4.20;;;;;;;20.83;49.38;95277.22;4998603;28;20235;-63
2021/07/23 01:06:59;;;;;;;6.57;4.47;;;;;;;20.81;49.42;95266.09;5029968;28;20432;-65
2021/07/23 01:09:26;;;;;;;7.30;4.47;;;;;;;20.89;49.07;95273.31;5026729;28;21736;-65
2021/07/23 01:11:53;;;;;;;6.30;4.33;;;;;;;20.84;49.35;95273.44;5010316;28;20811;-65
2021/07/23 01:14:27;;;;;;;6.07;3.93;;;;;;;20.76;49.35;95268.13;5015288;28;20715;-64
2021/07/23 01:16:54;;;;;;;5.17;4.10;;;;;;;20.91;49.20;95271.13;5010145;28;20711;-66
2021/07/23 01:19:26;;;;;;;7.60;4.57;;;;;;;20.80;49.28;95275.16;5024693;28;20208;-65
2021/07/23 01:21:57;;;;;;;6.47;4.07;;;;;;;20.88;49.19;95269.09;5014286;28;20457;-65
2021/07/23 01:24:24;;;;;;;4.87;4.23;;;;;;;20.77;49.18;95275.78;5030362;28;20444;-66
2021/07/23 01:26:53;;;;;;;6.20;4.17;;;;;;;20.76;49.51;95274.22;5015890;28;20201;-64
2021/07/23 01:30:00;;;;;;;10.27;4.27;;;;;;;20.83;49.28;95263.91;5025740;28;20918;-65
2021/07/23 01:32:28;;;;;;;6.50;3.93;;;;;;;20.76;49.38;95268.91;5028217;28;20555;-65
2021/07/23 01:34:56;;;;;;;4.93;3.80;;;;;;;20.72;49.06;95267.94;5017062;28;20448;-65
2021/07/23 01:37:25;;;;;;;5.40;4.20;;;;;;;20.73;49.35;95274.84;5029809;28;20499;-66
2021/07/23 01:39:53;;;;;;;4.83;3.73;;;;;;;20.71;49.11;95270.94;5027516;28;20440;-65
2021/07/23 01:42:21;;;;;;;5.00;3.93;;;;;;;20.74;49.25;95268.44;5021011;28;20229;-65
2021/07/23 01:44:48;;;;;;;7.43;3.97;;;;;;;20.40;49.67;95260.31;5017119;28;20263;-65
2021/07/23 01:47:16;;;;;;;5.43;4.07;;;;;;;20.28;49.79;95256.66;5014786;28;20452;-65
2021/07/23 01:49:43;;;;;;;7.00;4.53;;;;;;;20.40;49.84;95260.31;5016486;28;20252;-66
2021/07/23 01:52:20;;;;;;;5.47;4.03;;;;;;;20.55;49.62;95262.56;5025494;28;20961;-66
2021/07/23 01:54:48;;;;;;;4.90;4.00;;;;;;;20.54;49.60;95263.66;5027409;28;20448;-66
2021/07/23 01:57:28;;;;;;;5.80;4.07;;;;;;;20.41;49.67;95240.59;5016531;28;21301;-65
2021/07/23 01:59:57;;;;;;;5.20;4.10;;;;;;;20.54;49.57;95266.34;5027153;28;20526;-65
2021/07/23 02:02:24;;;;;;;10.57;4.33;;;;;;;20.47;49.76;95263.34;5029226;28;20440;-65
2021/07/23 02:04:58;;;;;;;7.50;4.30;;;;;;;20.55;49.92;95267.09;5024295;28;20207;-66
2021/07/23 02:07:26;;;;;;;6.47;3.90;;;;;;;20.47;49.78;95276.66;5028710;28;20532;-65
2021/07/23 02:09:53;;;;;;;4.90;3.93;;;;;;;20.44;49.75;95279.13;5026795;28;20483;-66
2021/07/23 02:12:20;;;;;;;4.13;3.73;;;;;;;20.43;49.86;95254.41;5028772;28;20531;-64
2021/07/23 02:15:08;;;;;;;8.03;4.30;;;;;;;20.48;49.41;95256.91;5028370;28;20447;-65
2021/07/23 02:17:35;;;;;;;5.60;3.63;;;;;;;20.49;49.43;95263.78;5023348;28;20450;-67
2021/07/23 02:20:07;;;;;;;5.53;4.10;;;;;;;20.48;49.61;95272.88;5026165;28;20472;-64
2021/07/23 02:22:37;;;;;;;5.00;4.00;;;;;;;20.54;49.43;95271.66;5013787;28;20452;-64
2021/07/23 02:25:07;;;;;;;5.37;4.10;;;;;;;20.44;49.49;95263.94;5026377;28;20451;-66
2021/07/23 02:27:34;;;;;;;4.27;3.87;;;;;;;20.41;49.80;95261.91;5028584;28;20517;-65
2021/07/23 02:30:03;;;;;;;6.67;4.23;;;;;;;20.39;49.77;95263.28;5027950;28;20476;-65
2021/07/23 02:32:39;;;;;;;5.47;3.87;;;;;;;20.31;50.06;95261.41;5027506;28;20790;-64
2021/07/23 02:35:08;;;;;;;6.40;4.00;;;;;;;20.22;50.03;95269.31;5013301;28;20445;-64
2021/07/23 02:37:49;;;;;;;6.97;4.60;;;;;;;19.92;50.57;95270.09;5027996;28;20479;-65
2021/07/23 02:40:16;;;;;;;5.73;3.83;;;;;;;19.94;50.82;95265.25;5010844;28;21045;-64
2021/07/23 02:42:53;;;;;;;6.00;4.00;;;;;;;20.18;49.94;95269.16;5028132;28;20499;-64
2021/07/23 02:45:20;;;;;;;7.10;4.40;;;;;;;20.18;49.88;95271.03;5027619;28;21032;-65
2021/07/23 02:47:48;;;;;;;6.73;3.87;;;;;;;20.08;49.99;95277.38;5028553;28;20432;-64
2021/07/23 02:50:16;;;;;;;3.90;3.50;;;;;;;20.04;49.81;95273.75;5011047;28;20580;-65
2021/07/23 02:52:47;;;;;;;7.27;3.70;;;;;;;19.60;50.63;95267.66;5028129;28;20448;-65
2021/07/23 02:55:20;;;;;;;4.93;3.50;;;;;;;19.38;51.08;95275.66;5028313;28;20802;-67
2021/07/23 02:57:48;;;;;;;5.97;3.67;;;;;;;19.72;50.83;95267.94;5031860;28;20505;-66
2021/07/23 03:00:22;;;;;;;9.93;4.03;;;;;;;19.75;51.28;95269.97;5016530;28;20878;-68
2021/07/23 03:02:50;;;;;;;7.43;3.90;;;;;;;19.96;50.50;95263.84;5031696;28;20809;-65
2021/07/23 03:05:17;;;;;;;4.57;3.70;;;;;;;19.87;50.15;95264.91;5030341;28;20589;-65
2021/07/23 03:07:45;;;;;;;6.93;4.17;;;;;;;19.88;50.60;95263.78;5030361;28;20542;-65
2021/07/23 03:10:11;;;;;;;8.17;4.00;;;;;;;19.92;50.15;95264.75;5030130;28;21030;-65
2021/07/23 03:12:41;;;;;;;5.90;3.90;;;;;;;19.20;50.75;95264.84;5030658;28;20992;-65
2021/07/23 03:15:10;;;;;;;7.37;3.77;;;;;;;19.42;50.84;95271.28;5031465;28;20510;-66
2021/07/23 03:17:38;;;;;;;7.40;4.10;;;;;;;19.66;50.58;95277.09;5016713;28;20459;-66
2021/07/23 03:20:08;;;;;;;5.57;3.73;;;;;;;19.76;49.89;95261.69;5031120;28;20961;-65
2021/07/23 03:22:38;;;;;;;5.97;3.80;;;;;;;19.71;50.26;95267.13;5031790;28;20439;-66
2021/07/23 03:25:14;;;;;;;9.03;3.77;;;;;;;19.92;49.91;95270.09;5013299;28;20475;-65
2021/07/23 03:28:00;;;;;;;5.73;4.30;;;;;;;19.74;50.96;95273.72;5030813;28;20981;-65
2021/07/23 03:30:37;;;;;;;5.90;4.30;;;;;;;19.67;51.69;95273.38;5027216;28;20510;-65
2021/07/23 03:33:06;;;;;;;7.27;4.60;;;;;;;19.54;51.66;95275.00;5017256;28;20441;-64
2021/07/23 03:35:35;;;;;;;6.83;5.00;;;;;;;19.70;51.68;95267.44;5041476;28;20494;-65
2021/07/23 03:38:07;;;;;;;7.17;4.23;;;;;;;19.78;50.92;95275.47;5028307;28;20558;-66
2021/07/23 03:40:35;;;;;;;11.57;5.27;;;;;;;19.70;51.06;95270.09;5029702;28;20953;-65
2021/07/23 03:43:09;;;;;;;7.20;4.73;;;;;;;19.67;51.37;95262.75;5022828;28;20475;-66
2021/07/23 03:46:02;;;;;;;5.73;3.63;;;;;;;19.59;50.81;95271.44;5030867;28;20502;-66
2021/07/23 03:48:34;;;;;;;4.83;3.77;;;;;;;19.37;51.09;95258.91;5029988;28;20452;-67
2021/07/23 03:51:03;;;;;;;4.33;3.63;;;;;;;19.59;50.52;95277.53;5019572;28;20523;-67
2021/07/23 03:53:32;;;;;;;4.90;4.03;;;;;;;19.74;50.35;95276.38;5020447;28;20482;-66
2021/07/23 03:56:08;;;;;;;5.77;3.90;;;;;;;19.74;50.44;95287.03;5028797;28;20856;-65
2021/07/23 03:58:41;;;;;;;4.00;3.37;;;;;;;19.80;50.22;95278.59;5028256;28;20526;-65
2021/07/23 04:01:10;;;;;;;4.93;3.73;;;;;;;19.57;50.78;95278.91;5025530;28;20457;-64
2021/07/23 04:03:43;;;;;;;4.10;3.70;;;;;;;19.61;51.18;95275.38;5015682;28;20489;-65
2021/07/23 04:06:14;;;;;;;4.70;4.03;;;;;;;19.70;50.84;95272.75;5022078;28;20432;-65
2021/07/23 04:08:41;;;;;;;4.63;3.77;;;;;;;19.67;50.92;95274.13;5017328;28;20838;-64
2021/07/23 04:11:15;;;;;;;6.53;4.23;;;;;;;19.82;50.84;95278.31;5026288;28;20452;-64
2021/07/23 04:13:44;;;;;;;7.77;4.30;;;;;;;19.93;50.67;95282.28;5026807;28;20540;-65
2021/07/23 04:16:11;;;;;;;8.70;4.47;;;;;;;19.81;50.76;95271.44;5030274;28;20530;-67
2021/07/23 04:18:40;;;;;;;8.67;3.97;;;;;;;19.73;51.34;95280.13;5021008;28;20444;-66
2021/07/23 04:21:25;;;;;;;8.13;4.27;;;;;;;19.83;51.27;95278.03;5024551;28;20845;-67
2021/07/23 04:23:53;;;;;;;6.03;4.30;;;;;;;19.80;51.24;95273.28;5028661;28;21052;-66
2021/07/23 04:26:22;;;;;;;6.67;4.30;;;;;;;19.92;51.17;95270.88;5029168;28;20984;-66
2021/07/23 04:28:49;;;;;;;7.90;4.30;;;;;;;19.76;51.59;95266.25;5029740;28;20533;-66
2021/07/23 04:31:17;;;;;;;6.10;4.27;;;;;;;19.81;51.55;95268.75;5027261;28;20442;-66
2021/07/23 04:34:01;;;;;;;9.33;4.40;;;;;;;19.94;51.08;95267.91;5027698;28;20432;-67
2021/07/23 04:36:37;;;;;;;12.17;4.60;;;;;;;19.89;51.05;95271.47;5028929;28;20451;-67
2021/07/23 04:39:24;;;;;;;7.90;4.53;;;;;;;20.00;51.50;95269.34;5027886;28;20534;-65
2021/07/23 04:41:54;;;;;;;8.17;4.67;;;;;;;20.17;50.91;95272.13;5028642;28;20474;-64
2021/07/23 04:44:22;;;;;;;9.17;5.73;;;;;;;20.10;50.94;95272.53;5017420;28;20497;-66
2021/07/23 04:47:00;;;;;;;58.63;46.97;;;;;;;20.27;50.96;95274.53;5027415;28;20766;-67
2021/07/23 04:49:28;;;;;;;48.03;30.57;;;;;;;20.28;50.94;95269.97;5021983;28;20594;-68
2021/07/23 04:51:58;;;;;;;14.87;11.40;;;;;;;20.25;51.60;95274.06;5029666;28;20965;-68
2021/07/23 04:54:57;;;;;;;7.20;5.83;;;;;;;20.32;50.96;95268.28;5017057;28;20547;-65
2021/07/23 04:57:59;;;;;;;9.80;5.57;;;;;;;20.21;51.47;95270.44;5020481;28;20448;-65
2021/07/23 05:00:26;;;;;;;8.97;5.40;;;;;;;20.51;50.85;95256.28;5031136;28;20455;-66
2021/07/23 05:02:54;;;;;;;8.27;5.70;;;;;;;20.24;51.47;95267.13;5021455;28;20957;-67
2021/07/23 05:05:25;;;;;;;8.27;5.43;;;;;;;20.33;50.52;95261.88;5037255;28;20448;-66
2021/07/23 05:07:53;;;;;;;9.07;6.70;;;;;;;20.41;51.17;95264.56;5018565;28;21386;-65
2021/07/23 05:10:22;;;;;;;9.73;5.93;;;;;;;20.46;51.28;95256.44;5021107;28;20489;-69
2021/07/23 05:12:49;;;;;;;10.50;6.30;;;;;;;20.01;52.25;95269.06;5025506;28;20200;-66
2021/07/23 05:15:16;;;;;;;146.03;127.13;;;;;;;20.21;52.16;95266.97;5031335;28;20475;-66
2021/07/23 05:17:45;;;;;;;87.67;74.20;;;;;;;20.30;52.52;95267.78;5033084;28;20221;-65
2021/07/23 05:20:12;;;;;;;17.43;12.60;;;;;;;20.58;51.48;95256.66;5032445;28;20221;-64
2021/07/23 05:22:40;;;;;;;25.87;21.40;;;;;;;20.71;50.76;95258.38;5018768;28;20443;-66
2021/07/23 05:25:10;;;;;;;14.70;9.10;;;;;;;20.68;50.56;95256.34;5023947;28;20218;-65
2021/07/23 05:27:37;;;;;;;12.30;8.83;;;;;;;20.61;50.75;95240.03;5021231;28;20228;-65
2021/07/23 05:30:05;;;;;;;11.10;7.03;;;;;;;20.76;51.02;95260.91;5028880;28;20253;-68
2021/07/23 05:32:32;;;;;;;12.27;7.10;;;;;;;20.89;50.37;95261.88;5028254;28;20671;-68
2021/07/23 05:34:59;;;;;;;16.60;10.30;;;;;;;20.81;50.91;95255.44;5029579;28;20185;-67
2021/07/23 05:37:26;;;;;;;12.10;7.33;;;;;;;20.78;50.62;95266.69;5030044;28;20232;-70
2021/07/23 05:39:53;;;;;;;17.53;8.27;;;;;;;20.74;51.12;95270.31;5029383;28;20280;-68
2021/07/23 05:42:19;;;;;;;28.13;22.23;;;;;;;20.79;51.13;95257.63;5029831;28;20255;-69
2021/07/23 05:44:46;;;;;;;16.93;9.23;;;;;;;20.98;50.95;95268.00;5029362;28;20207;-69
2021/07/23 05:47:13;;;;;;;8.20;6.53;;;;;;;21.21;50.44;95263.34;5030260;28;20207;-68
2021/07/23 05:49:41;;;;;;;9.90;6.60;;;;;;;20.90;50.57;95256.25;5029711;28;20638;-69
2021/07/23 05:52:07;;;;;;;13.63;6.90;;;;;;;21.23;50.17;95256.63;5030170;28;20201;-68
2021/07/23 05:54:36;;;;;;;12.13;6.90;;;;;;;21.01;51.00;95265.53;5029376;28;20228;-69
2021/07/23 05:57:03;;;;;;;9.60;6.60;;;;;;;21.07;51.01;95266.16;5030131;28;20203;-68
2021/07/23 05:59:30;;;;;;;11.60;6.63;;;;;;;20.83;51.50;95263.91;5029244;28;20287;-69
2021/07/23 06:01:57;;;;;;;12.17;7.43;;;;;;;20.50;51.93;95256.59;5030312;28;20516;-68
2021/07/23 06:04:24;;;;;;;11.70;6.47;;;;;;;21.07;50.87;95264.28;5029676;28;20656;-68
2021/07/23 06:06:51;;;;;;;9.07;6.67;;;;;;;21.23;49.67;95261.16;5030243;28;20193;-69
2021/07/23 06:09:18;;;;;;;12.80;6.93;;;;;;;20.98;50.07;95260.00;5030117;28;20292;-71
2021/07/23 06:11:46;;;;;;;14.03;7.07;;;;;;;21.02;50.05;95256.44;5010433;28;20200;-68
2021/07/23 06:14:12;;;;;;;16.00;7.03;;;;;;;21.27;49.95;95262.09;5023644;28;20193;-71
2021/07/23 06:16:42;;;;;;;17.47;8.37;;;;;;;21.37;49.97;95251.91;5029741;28;20663;-68
2021/07/23 06:19:09;;;;;;;14.80;7.67;;;;;;;21.57;49.09;95256.59;5019041;28;20217;-70
2021/07/23 06:21:36;;;;;;;16.17;7.87;;;;;;;21.64;50.17;95256.13;5026068;28;20280;-69
2021/07/23 06:24:04;;;;;;;17.53;7.30;;;;;;;21.64;48.87;95250.81;5020632;28;20201;-69
2021/07/23 06:26:31;;;;;;;10.73;6.50;;;;;;;21.55;48.48;95252.69;5024622;28;20631;-69
2021/07/23 06:28:58;;;;;;;15.37;6.77;;;;;;;21.55;48.42;95240.13;5022128;28;20301;-69
2021/07/23 06:31:24;;;;;;;14.50;6.60;;;;;;;22.07;47.53;95255.00;5025472;28;20221;-71
2021/07/23 06:33:51;;;;;;;11.60;6.40;;;;;;;22.08;47.60;95247.75;5022974;28;20730;-68
2021/07/23 06:36:18;;;;;;;24.50;8.50;;;;;;;22.20;47.11;95244.41;5033049;28;20205;-70
2021/07/23 06:38:46;;;;;;;12.37;6.87;;;;;;;21.98;47.12;95237.41;5033849;28;20211;-66
2021/07/23 06:41:13;;;;;;;9.33;5.90;;;;;;;22.01;46.63;95244.78;5033124;28;20280;-66
2021/07/23 06:43:39;;;;;;;9.00;5.63;;;;;;;22.05;47.91;95245.72;5033371;28;20260;-66
2021/07/23 06:46:06;;;;;;;13.57;6.50;;;;;;;22.19;47.22;95240.19;5031870;28;20223;-66
2021/07/23 06:48:36;;;;;;;10.37;6.33;;;;;;;22.25;47.81;95245.03;5033611;28;20211;-66
2021/07/23 06:51:04;;;;;;;8.90;6.17;;;;;;;22.50;47.13;95238.03;5032661;28;20212;-64
2021/07/23 06:53:31;;;;;;;13.17;5.80;;;;;;;22.62;46.89;95236.25;5024016;28;20208;-67
2021/07/23 06:55:58;;;;;;;10.30;6.40;;;;;;;22.55;45.95;95232.50;5025906;28;20693;-66
2021/07/23 06:58:25;;;;;;;13.20;6.37;;;;;;;22.89;46.35;95232.31;5031902;28;20596;-67
2021/07/23 07:00:52;;;;;;;19.73;6.00;;;;;;;22.85;46.67;95236.75;5032084;28;20249;-65
2021/07/23 07:03:19;;;;;;;11.53;5.83;;;;;;;22.98;46.37;95236.50;5033412;28;20197;-66
2021/07/23 07:05:50;;;;;;;9.17;6.00;;;;;;;23.20;45.41;95238.09;5031028;28;20205;-64
2021/07/23 07:08:18;;;;;;;12.80;5.70;;;;;;;23.26;44.73;95233.31;5030051;28;20200;-66
2021/07/23 07:10:45;;;;;;;10.43;5.73;;;;;;;23.36;44.23;95231.06;5030523;28;20267;-65
2021/07/23 07:13:12;;;;;;;11.87;5.70;;;;;;;23.34;44.84;95222.56;5021978;28;20205;-64
2021/07/23 07:15:38;;;;;;;10.10;5.37;;;;;;;23.35;45.15;95218.00;5032166;28;20193;-65
2021/07/23 07:18:05;;;;;;;11.67;5.93;;;;;;;23.45;43.96;95220.31;5030080;28;20205;-66
2021/07/23 07:20:33;;;;;;;9.27;5.53;;;;;;;23.41;44.00;95216.72;5024148;28;20205;-65
2021/07/23 07:23:01;;;;;;;13.23;6.67;;;;;;;22.89;44.37;95221.63;5032289;28;20197;-68
2021/07/23 07:25:31;;;;;;;10.20;6.27;;;;;;;23.09;44.48;95212.84;5031775;28;20679;-67
2021/07/23 07:27:58;;;;;;;11.00;5.97;;;;;;;23.36;44.07;95204.31;5021711;28;20586;-67
2021/07/23 07:30:25;;;;;;;8.63;5.80;;;;;;;23.74;44.22;95209.50;5031769;28;20227;-66
2021/07/23 07:32:52;;;;;;;12.30;6.40;;;;;;;23.78;44.02;95205.00;5032407;28;20201;-67
2021/07/23 07:35:19;;;;;;;12.13;5.73;;;;;;;23.79;44.67;95214.63;5025198;28;20193;-67
2021/07/23 07:37:46;;;;;;;18.27;6.00;;;;;;;24.07;42.80;95211.03;5025513;28;20262;-68
2021/07/23 07:40:13;;;;;;;8.80;5.93;;;;;;;24.18;42.92;95206.00;5030905;28;20685;-67
2021/07/23 07:42:40;;;;;;;14.13;6.43;;;;;;;24.16;42.36;95212.84;5031058;28;20730;-66
2021/07/23 07:45:08;;;;;;;15.30;6.00;;;;;;;24.31;43.14;95210.28;5031724;28;20194;-68
2021/07/23 07:47:35;;;;;;;13.63;6.10;;;;;;;24.40;42.72;95210.94;5032196;28;20208;-67
2021/07/23 07:50:02;;;;;;;14.70;5.67;;;;;;;24.67;42.50;95206.81;5031697;28;20680;-68
2021/07/23 07:52:30;;;;;;;13.07;5.57;;;;;;;24.79;42.11;95202.25;5031645;28;20197;-67
2021/07/23 07:54:57;;;;;;;11.37;5.70;;;;;;;24.65;41.38;95207.13;5031420;28;20208;-68
2021/07/23 07:57:23;;;;;;;11.17;5.20;;;;;;;24.29;41.50;95209.81;5018345;28;20236;-67
2021/07/23 07:59:50;;;;;;;11.27;5.00;;;;;;;24.64;41.97;95202.91;5017382;28;20742;-67
2021/07/23 08:02:18;;;;;;;5.80;4.77;;;;;;;24.96;41.12;95202.00;5032008;28;20264;-67
2021/07/23 08:04:46;;;;;;;8.17;4.70;;;;;;;25.07;40.82;95207.69;5031358;28;20201;-67
2021/07/23 08:07:18;;;;;;;7.93;4.30;;;;;;;25.19;38.98;95198.81;5032142;28;20679;-66
2021/07/23 08:09:53;;;;;;;6.00;3.97;;;;;;;25.08;39.15;95202.00;5031315;28;20200;-68
2021/07/23 08:12:23;;;;;;;7.57;4.23;;;;;;;25.20;37.07;95200.41;5032339;28;20228;-67
2021/07/23 08:14:51;;;;;;;5.27;3.70;;;;;;;24.93;37.14;95205.38;5021932;28;20197;-69
2021/07/23 08:17:18;;;;;;;6.30;3.87;;;;;;;25.02;36.97;95200.66;5035937;28;20604;-66
2021/07/23 08:19:46;;;;;;;12.47;7.03;;;;;;;25.21;37.59;95204.63;5032990;28;20205;-66
2021/07/23 08:22:13;;;;;;;16.63;13.93;;;;;;;25.42;35.86;95192.63;5031419;28;20193;-67
2021/07/23 08:24:41;;;;;;;5.50;3.90;;;;;;;25.39;35.21;95195.19;5030755;28;20292;-67
2021/07/23 08:27:08;;;;;;;7.30;4.10;;;;;;;25.35;33.94;95191.59;5018873;28;20236;-68
2021/07/23 08:29:35;;;;;;;4.60;3.83;;;;;;;25.37;34.13;95190.16;5031368;28;20224;-67
2021/07/23 08:32:09;;;;;;;10.20;4.30;;;;;;;25.54;34.03;95183.75;5027087;28;20280;-68
2021/07/23 08:34:37;;;;;;;6.90;4.20;;;;;;;25.69;35.59;95196.44;5026404;28;20223;-67
2021/07/23 08:37:06;;;;;;;25.47;6.60;;;;;;;25.79;34.99;95190.56;5031632;28;20793;-61
2021/07/23 08:39:34;;;;;;;7.53;4.17;;;;;;;25.84;32.32;95187.59;5030672;28;20213;-66
2021/07/23 08:42:26;;;;;;;5.67;4.37;;;;;;;26.05;34.41;95180.13;5017739;28;20228;-63
2021/07/23 08:44:54;;;;;;;8.30;5.33;;;;;;;26.31;34.19;95175.03;5031068;28;20236;-67
2021/07/23 08:47:22;;;;;;;7.63;4.53;;;;;;;26.35;33.30;95173.19;5031790;28;20209;-65
2021/07/23 08:49:50;;;;;;;8.17;5.20;;;;;;;26.63;33.68;95168.47;5030816;28;20229;-64
2021/07/23 08:52:18;;;;;;;11.83;4.33;;;;;;;26.63;32.41;95167.69;5031037;28;20212;-63
2021/07/23 08:54:46;;;;;;;13.53;4.20;;;;;;;26.44;32.57;95160.34;5010660;28;20209;-64
2021/07/23 08:57:13;;;;;;;5.90;4.10;;;;;;;26.70;32.69;95170.56;5023497;28;20197;-64
2021/07/23 08:59:40;;;;;;;17.07;4.77;;;;;;;27.01;32.28;95170.50;5025637;28;20202;-65
2021/07/23 09:02:07;;;;;;;9.03;4.30;;;;;;;27.16;32.28;95168.88;5021361;28;20593;-65
2021/07/23 09:04:36;;;;;;;8.67;4.90;;;;;;;27.12;33.77;95171.50;5027410;28;20208;-62
2021/07/23 09:07:17;;;;;;;15.83;5.13;;;;;;;27.30;32.81;95166.50;5020450;28;20201;-64
2021/07/23 09:09:57;;;;;;;30.73;5.50;;;;;;;27.39;32.26;95165.16;5029699;28;20207;-63
2021/07/23 09:12:24;;;;;;;51.07;8.33;;;;;;;27.58;31.68;95161.66;5030949;28;20239;-66
2021/07/23 09:14:51;;;;;;;21.83;5.70;;;;;;;27.68;30.93;95155.72;5030109;28;20185;-64
2021/07/23 09:17:18;;;;;;;6.73;4.00;;;;;;;27.58;28.23;95161.66;5021308;28;20260;-64
2021/07/23 09:20:02;;;;;;;6.70;4.20;;;;;;;27.53;28.37;95154.69;5022396;28;20201;-62
2021/07/23 09:22:53;;;;;;;5.57;4.20;;;;;;;27.65;27.92;95159.91;5020990;28;20212;-66
2021/07/23 09:25:43;;;;;;;5.13;4.03;;;;;;;27.07;27.08;95160.22;5029419;28;20671;-66
2021/07/23 09:28:22;;;;;;;4.73;3.77;;;;;;;26.78;27.30;95164.22;5029861;28;20668;-68
2021/07/23 09:30:49;;;;;;;4.87;4.30;;;;;;;26.81;28.58;95156.25;5029509;28;20805;-65
2021/07/23 09:33:24;;;;;;;9.43;4.77;;;;;;;27.40;28.87;95149.78;5027518;28;20275;-64
2021/07/23 09:35:53;;;;;;;7.20;4.67;;;;;;;27.76;29.89;95147.41;5029366;28;20206;-66
2021/07/23 09:38:22;;;;;;;5.27;4.10;;;;;;;27.89;28.48;95145.31;5029188;28;20690;-67
2021/07/23 09:40:49;;;;;;;7.53;4.30;;;;;;;27.92;27.36;95141.88;5028710;28;20225;-68
2021/07/23 09:43:29;;;;;;;5.13;4.63;;;;;;;27.57;26.87;95141.28;5026340;28;20229;-66
2021/07/23 09:46:16;;;;;;;7.50;4.70;;;;;;;27.32;26.70;95142.69;5018019;28;20197;-64
2021/07/23 09:48:44;;;;;;;5.27;4.17;;;;;;;27.42;26.38;95131.38;5022209;28;20231;-65
2021/07/23 09:51:11;;;;;;;4.70;4.20;;;;;;;27.18;26.79;95129.72;5029293;28;20220;-67
2021/07/23 09:53:39;;;;;;;5.57;3.93;;;;;;;27.85;27.08;95133.69;5019674;28;20201;-64
2021/07/23 09:56:08;;;;;;;6.27;4.20;;;;;;;27.17;26.97;95138.91;5013001;28;20531;-65
2021/07/23 09:58:41;;;;;;;5.73;4.50;;;;;;;27.49;26.41;95131.50;5028922;28;20212;-66
2021/07/23 10:01:10;;;;;;;5.20;3.87;;;;;;;27.45;27.07;95127.97;5029350;28;20250;-67
2021/07/23 10:03:43;;;;;;;7.90;3.80;;;;;;;27.60;26.52;95119.81;5020340;28;20285;-67
2021/07/23 10:06:20;;;;;;;11.00;5.77;;;;;;;27.64;28.05;95122.56;5027436;28;20208;-66
2021/07/23 10:08:53;;;;;;;7.93;4.47;;;;;;;27.66;27.96;95120.28;5029671;28;20232;-68
2021/07/23 10:11:21;;;;;;;6.17;4.30;;;;;;;27.66;29.05;95121.03;5029313;28;20225;-66
2021/07/23 10:13:51;;;;;;;5.30;3.93;;;;;;;28.10;26.23;95118.78;5029734;28;20197;-69
2021/07/23 10:16:18;;;;;;;7.57;4.30;;;;;;;28.60;26.80;95113.00;5029110;28;20717;-65
2021/07/23 10:18:46;;;;;;;10.57;6.57;;;;;;;28.82;27.21;95119.47;5029496;28;20271;-65
2021/07/23 10:21:13;;;;;;;10.60;7.33;;;;;;;28.93;27.33;95102.28;5029612;28;20687;-69
2021/07/23 10:23:44;;;;;;;11.73;8.00;;;;;;;29.19;27.52;95104.19;5021193;28;20292;-67
2021/07/23 10:26:13;;;;;;;31.87;10.83;;;;;;;29.32;26.72;95107.41;5029917;28;20623;-66
2021/07/23 10:28:40;;;;;;;14.47;9.87;;;;;;;29.03;27.09;95106.28;5032239;28;20276;-66
2021/07/23 10:31:24;;;;;;;7.47;5.97;;;;;;;29.37;26.96;95096.28;5032074;28;20327;-67
2021/07/23 10:33:53;;;;;;;9.23;4.50;;;;;;;29.32;26.38;95096.59;5032679;28;20208;-65
2021/07/23 10:36:26;;;;;;;9.20;5.10;;;;;;;29.30;26.68;95093.50;5029968;28;20201;-65
2021/07/23 10:39:08;;;;;;;10.30;5.10;;;;;;;29.51;26.83;95094.50;5021035;28;20277;-67
2021/07/23 10:41:39;;;;;;;8.70;5.00;;;;;;;29.87;25.95;95087.56;5029470;28;20701;-74
2021/07/23 10:44:31;;;;;;;7.23;4.20;;;;;;;30.06;25.70;95086.53;5024112;28;20209;-68
2021/07/23 10:46:59;;;;;;;8.87;4.43;;;;;;;29.79;25.92;95083.22;5031111;28;20201;-70
2021/07/23 10:49:32;;;;;;;9.67;4.97;;;;;;;29.47;26.79;95082.88;5029091;28;20193;-67
2021/07/23 10:52:01;;;;;;;5.80;4.70;;;;;;;29.47;26.74;95076.72;5017022;28;20222;-68
2021/07/23 10:54:33;;;;;;;6.33;4.70;;;;;;;29.10;26.98;95065.09;5025635;28;20202;-67
2021/07/23 10:57:04;;;;;;;5.97;5.37;;;;;;;29.04;26.63;95085.44;5018871;28;20226;-66
2021/07/23 10:59:40;;;;;;;8.10;5.07;;;;;;;28.95;26.71;95072.25;5023466;28;20630;-65
2021/07/23 11:02:08;;;;;;;7.07;5.47;;;;;;;28.76;27.63;95075.84;5020073;28;20219;-66
2021/07/23 11:04:35;;;;;;;9.43;4.63;;;;;;;29.40;27.47;95066.59;5029090;28;20510;-65
2021/07/23 11:07:03;;;;;;;14.47;5.33;;;;;;;29.77;26.94;95070.09;5020580;28;20672;-67
2021/07/23 11:09:31;;;;;;;5.53;4.40;;;;;;;29.87;25.97;95074.78;5009108;28;20752;-67
2021/07/23 11:12:14;;;;;;;9.77;4.83;;;;;;;30.49;25.99;95061.38;5015634;28;20267;-69
2021/07/23 11:14:41;;;;;;;6.00;4.33;;;;;;;30.42;24.97;95061.34;5029041;28;20197;-65
2021/07/23 11:17:10;;;;;;;6.20;4.50;;;;;;;30.72;25.42;95059.97;5030403;28;20664;-66
2021/07/23 11:19:37;;;;;;;7.23;4.60;;;;;;;30.21;25.12;95053.84;5019605;28;20213;-66
2021/07/23 11:22:04;;;;;;;7.07;4.80;;;;;;;29.90;25.32;95062.47;5033706;28;20208;-66
2021/07/23 11:24:35;;;;;;;10.47;6.90;;;;;;;29.56;25.73;95058.28;5033242;28;20205;-71
2021/07/23 11:27:02;;;;;;;11.13;10.10;;;;;;;30.22;25.42;95057.31;5012943;28;20581;-64
2021/07/23 11:29:38;;;;;;;6.70;4.60;;;;;;;30.43;23.93;95046.66;5025285;28;20208;-67
2021/07/23 11:32:07;;;;;;;6.50;5.90;;;;;;;30.10;24.62;95061.09;5026627;28;20232;-66
2021/07/23 11:34:41;;;;;;;6.50;4.50;;;;;;;30.12;26.17;95047.97;5026994;28;20255;-68
2021/07/23 11:37:26;;;;;;;7.87;4.73;;;;;;;30.39;26.97;95019.59;5020336;28;20747;-68
2021/07/23 11:40:11;;;;;;;6.47;5.27;;;;;;;30.40;25.94;95048.19;5031113;28;20263;-68
2021/07/23 11:42:40;;;;;;;8.67;6.10;;;;;;;30.45;25.05;95039.72;5031336;28;20307;-68